Time;durP1;ratioP1;P1;durP2;ratioP2;P2;SDS_P1;SDS_P2;PMS_P1;PMS_P2;Temp;Humidity;BMP_temperature;BMP_pressure;BME280_temperature;BME280_humidity;BME280_pressure;Samples;Min_cycle;Max_cycle;Signal;HPM_P1;HPM_P2
2022/09/07 00:03:46;;;;;;;2.95;1.50;;;23.10;51.70;;;;;;20563987;28;20477;-70
2022/09/07 00:13:47;;;;;;;2.25;1.85;;;23.10;51.70;;;;;;20529530;28;20042;-70
2022/09/07 00:23:48;;;;;;;2.78;1.83;;;23.10;51.80;;;;;;20560837;28;20575;-69
2022/09/07 00:33:50;;;;;;;2.25;1.85;;;23.10;51.80;;;;;;20577203;28;20134;-71
2022/09/07 00:43:55;;;;;;;2.20;1.77;;;23.10;51.80;;;;;;20545708;28;20083;-70
2022/09/07 00:54:00;;;;;;;2.60;1.80;;;23.10;51.90;;;;;;20559644;28;20108;-71
2022/09/07 01:04:01;;;;;;;4.10;2.15;;;23.10;51.90;;;;;;20559359;28;20613;-70
2022/09/07 01:14:06;;;;;;;4.47;1.88;;;23.10;51.90;;;;;;20542415;28;20035;-70
2022/09/07 01:24:21;;;;;;;;;;;23.00;51.90;;;;;;20559308;28;20478;-71
2022/09/07 01:34:23;;;;;;;2.92;1.63;;;23.10;52.00;;;;;;21059871;23;19925;-70
2022/09/07 01:44:29;;;;;;;2.70;1.70;;;23.00;52.00;;;;;;20716917;28;20532;-69
2022/09/07 01:54:37;;;;;;;3.28;1.73;;;23.00;52.00;;;;;;20716729;28;20038;-70
2022/09/07 02:04:43;;;;;;;2.45;2.00;;;23.00;52.00;;;;;;20716379;28;20117;-70
2022/09/07 02:14:46;;;;;;;2.60;1.88;;;23.10;52.80;;;;;;20698963;28;20080;-70
2022/09/07 02:24:49;;;;;;;2.85;2.10;;;23.00;52.10;;;;;;20730195;28;20041;-71
2022/09/07 02:34:49;;;;;;;2.55;1.88;;;23.00;52.10;;;;;;20713739;28;20045;-70
2022/09/07 02:44:50;;;;;;;3.17;2.30;;;23.00;52.10;;;;;;20696147;28;20484;-70
2022/09/07 02:54:56;;;;;;;2.55;2.25;;;23.00;52.10;;;;;;20728177;28;20304;-70
2022/09/07 03:05:02;;;;;;;2.17;1.50;;;23.00;52.10;;;;;;20726550;28;20050;-71
2022/09/07 03:15:03;;;;;;;3.25;2.10;;;23.00;52.10;;;;;;20710339;28;20043;-70
2022/09/07 03:25:04;;;;;;;2.35;1.98;;;23.00;52.00;;;;;;20725473;28;20081;-71
2022/09/07 03:35:05;;;;;;;3.17;2.30;;;23.00;52.00;;;;;;20725094;28;20064;-70
2022/09/07 03:45:07;;;;;;;3.20;2.15;;;23.00;52.00;;;;;;20707975;28;20107;-69
2022/09/07 03:55:07;;;;;;;2.65;1.83;;;23.00;52.00;;;;;;20691410;28;20045;-70
2022/09/07 04:05:08;;;;;;;2.43;1.60;;;23.00;52.00;;;;;;20707832;28;20404;-69
2022/09/07 04:15:09;;;;;;;3.22;2.15;;;23.00;51.90;;;;;;20705988;28;20292;-70
2022/09/07 04:25:09;;;;;;;3.38;1.88;;;23.00;51.90;;;;;;20695665;28;20118;-73
2022/09/07 04:35:10;;;;;;;3.83;2.17;;;23.00;51.90;;;;;;20634286;28;20125;-74
2022/09/07 04:45:11;;;;;;;3.75;2.22;;;23.00;51.90;;;;;;20660144;28;20029;-75
2022/09/07 04:55:11;;;;;;;4.43;2.17;;;23.00;51.90;;;;;;20610764;28;20145;-71
2022/09/07 05:05:12;;;;;;;4.28;2.00;;;23.00;51.90;;;;;;20657121;28;20041;-74
2022/09/07 05:15:13;;;;;;;2.72;1.98;;;23.00;51.80;;;;;;20631176;28;20503;-74
2022/09/07 05:25:13;;;;;;;3.17;2.15;;;22.90;51.80;;;;;;20654929;28;20081;-69
2022/09/07 05:35:14;;;;;;;6.05;2.70;;;23.00;51.90;;;;;;20637563;28;20120;-71
2022/09/07 05:45:15;;;;;;;3.95;2.42;;;22.90;51.90;;;;;;20669954;28;20026;-70
2022/09/07 05:55:16;;;;;;;3.05;2.15;;;22.90;52.00;;;;;;20653519;28;20245;-72
2022/09/07 06:05:16;;;;;;;4.28;2.50;;;22.90;52.00;;;;;;20653635;28;20698;-72
2022/09/07 06:15:17;;;;;;;3.22;2.42;;;22.90;52.10;;;;;;20660531;28;20133;-71
2022/09/07 06:25:18;;;;;;;5.57;2.20;;;22.90;52.10;;;;;;20634198;28;20042;-70
2022/09/07 06:35:18;;;;;;;5.18;2.80;;;22.90;52.10;;;;;;20598744;28;20131;-70
2022/09/07 06:45:19;;;;;;;4.13;2.60;;;22.90;52.20;;;;;;20567884;28;20038;-73
2022/09/07 06:55:20;;;;;;;4.28;2.65;;;22.90;52.20;;;;;;20583152;28;20043;-72
2022/09/07 07:05:20;;;;;;;4.20;2.55;;;22.90;52.20;;;;;;20566606;28;20027;-71
2022/09/07 07:15:21;;;;;;;3.15;2.38;;;23.00;52.20;;;;;;20564929;28;20058;-71
2022/09/07 07:25:22;;;;;;;3.47;2.03;;;22.90;52.10;;;;;;20582383;28;20035;-72
2022/09/07 07:35:23;;;;;;;3.35;2.15;;;23.00;52.10;;;;;;20562878;28;20489;-72
2022/09/07 07:45:23;;;;;;;4.17;2.43;;;23.00;52.00;;;;;;20579298;28;20035;-71
2022/09/07 07:55:24;;;;;;;3.45;2.50;;;23.00;52.00;;;;;;20579379;28;20389;-70
2022/09/07 08:05:24;;;;;;;2.67;1.95;;;23.00;51.90;;;;;;20561810;28;20034;-70
2022/09/07 08:15:25;;;;;;;2.67;2.17;;;23.00;51.90;;;;;;20577411;28;20182;-71
2022/09/07 08:25:27;;;;;;;3.72;2.33;;;23.00;51.80;;;;;;20560762;28;20030;-70
2022/09/07 08:35:27;;;;;;;2.92;2.10;;;23.00;51.90;;;;;;20576530;28;20039;-70
2022/09/07 08:45:37;;;;;;;3.03;2.33;;;23.00;52.00;;;;;;20561220;28;20033;-74
2022/09/07 08:56:00;;;;;;;3.67;2.55;;;23.00;52.00;;;;;;20575904;28;20123;-71
2022/09/07 09:06:11;;;;;;;3.85;2.40;;;23.00;52.30;;;;;;20591915;28;20110;-71
2022/09/07 09:16:20;;;;;;;4.28;2.30;;;23.00;52.40;;;;;;20575270;28;20398;-72
2022/09/07 09:26:28;;;;;;;4.38;2.10;;;23.00;52.40;;;;;;20576392;28;20405;-70
2022/09/07 09:36:33;;;;;;;5.10;2.33;;;23.00;52.30;;;;;;20589816;28;20426;-70
2022/09/07 09:46:34;;;;;;;3.90;2.42;;;23.00;52.20;;;;;;20588233;28;20039;-70
2022/09/07 09:56:39;;;;;;;2.65;2.08;;;23.00;52.10;;;;;;20571004;28;20050;-73
2022/09/07 10:06:52;;;;;;;2.65;2.03;;;23.00;52.20;;;;;;20583377;28;20508;-74
2022/09/07 10:16:53;;;;;;;2.33;1.80;;;23.00;52.10;;;;;;20569550;28;20115;-76
2022/09/07 10:26:53;;;;;;;3.40;2.80;;;23.10;52.00;;;;;;20585386;28;20050;-75
2022/09/07 10:37:09;;;;;;;3.35;2.38;;;23.10;52.10;;;;;;20552489;28;20405;-70
2022/09/07 10:47:32;;;;;;;3.55;2.60;;;23.10;52.20;;;;;;20567580;28;20070;-79
2022/09/07 10:57:48;;;;;;;2.97;2.25;;;23.20;52.30;;;;;;20633223;28;20038;-76
2022/09/07 11:08:07;;;;;;;3.53;2.67;;;23.10;52.40;;;;;;20626737;28;20030;-74
2022/09/07 11:18:12;;;;;;;4.20;2.67;;;23.10;52.40;;;;;;20616268;28;20109;-74
2022/09/07 11:28:16;;;;;;;;;;;23.20;52.50;;;;;;20702236;28;20050;-75
2022/09/07 11:38:32;;;;;;;3.90;2.45;;;23.20;52.40;;;;;;20726217;28;19921;-75
2022/09/07 11:48:49;;;;;;;3.85;2.65;;;23.20;52.40;;;;;;20691667;28;20034;-77
2022/09/07 11:59:12;;;;;;;3.63;2.78;;;23.30;52.40;;;;;;20653956;28;20064;-76
2022/09/07 12:09:15;;;;;;;3.53;2.70;;;23.30;52.40;;;;;;20645956;28;20030;-77
2022/09/07 12:19:18;;;;;;;2.92;2.47;;;23.30;52.40;;;;;;20659659;28;20200;-78
2022/09/07 12:29:23;;;;;;;3.90;3.05;;;23.30;52.40;;;;;;20562536;28;20129;-77
2022/09/07 12:39:27;;;;;;;3.33;2.83;;;23.40;52.60;;;;;;20546175;28;20064;-71
2022/09/07 12:49:50;;;;;;;4.15;2.40;;;23.40;52.60;;;;;;20563049;28;20046;-73
2022/09/07 13:00:11;;;;;;;4.93;3.00;;;23.40;52.70;;;;;;20561714;28;20114;-73
2022/09/07 13:10:29;;;;;;;4.07;2.63;;;23.40;52.70;;;;;;20560795;28;20030;-73
2022/09/07 13:20:31;;;;;;;2.88;2.20;;;23.40;52.80;;;;;;20545000;28;20101;-74
2022/09/07 13:31:06;;;;;;;3.95;3.03;;;23.40;52.90;;;;;;20562080;28;20388;-73
2022/09/07 13:41:18;;;;;;;3.40;2.78;;;23.40;53.00;;;;;;20575281;28;20046;-73
2022/09/07 13:51:28;;;;;;;3.65;2.42;;;23.40;53.00;;;;;;20575415;28;20073;-71
2022/09/07 14:01:29;;;;;;;3.95;2.83;;;23.40;53.00;;;;;;20574732;28;20113;-74
2022/09/07 14:11:42;;;;;;;3.50;2.90;;;23.40;53.00;;;;;;20578572;28;20134;-76
2022/09/07 14:21:43;;;;;;;3.53;2.60;;;23.50;53.10;;;;;;20561862;28;20371;-76
2022/09/07 14:31:44;;;;;;;3.92;2.63;;;23.50;53.10;;;;;;20592760;28;20129;-75
2022/09/07 14:41:44;;;;;;;3.88;2.75;;;23.50;53.20;;;;;;20591214;28;20045;-73
2022/09/07 14:51:45;;;;;;;4.28;2.33;;;23.50;53.20;;;;;;20574746;28;20136;-74
2022/09/07 15:01:45;;;;;;;4.60;2.75;;;23.60;53.30;;;;;;20574048;28;20031;-77
2022/09/07 15:11:46;;;;;;;3.55;2.38;;;23.60;53.20;;;;;;20553548;28;20477;-77
2022/09/07 15:21:46;;;;;;;4.47;2.38;;;23.70;53.20;;;;;;20551559;28;20517;-73
2022/09/07 15:31:47;;;;;;;3.88;2.40;;;23.70;53.20;;;;;;20566628;28;20046;-72
2022/09/07 15:41:48;;;;;;;4.45;2.60;;;23.70;53.30;;;;;;20621365;28;20113;-75
2022/09/07 15:51:49;;;;;;;3.15;2.83;;;23.70;53.40;;;;;;20628165;28;20392;-74
2022/09/07 16:01:49;;;;;;;2.63;2.33;;;23.70;53.60;;;;;;20626994;28;20448;-74
2022/09/07 16:11:50;;;;;;;3.70;2.37;;;23.60;53.70;;;;;;20686125;28;20335;-75
2022/09/07 16:21:50;;;;;;;3.58;2.55;;;23.50;53.80;;;;;;20593965;28;20062;-75
2022/09/07 16:31:51;;;;;;;3.00;2.15;;;23.50;54.10;;;;;;20578390;28;20378;-75
2022/09/07 16:41:52;;;;;;;3.65;2.28;;;23.40;54.30;;;;;;20561899;28;20026;-75
2022/09/07 16:51:53;;;;;;;2.83;2.25;;;23.30;54.40;;;;;;20577715;28;20070;-75
2022/09/07 17:01:54;;;;;;;3.45;2.30;;;23.20;54.50;;;;;;20563433;28;20042;-84
2022/09/07 17:11:54;;;;;;;4.50;2.40;;;23.20;54.80;;;;;;20556403;28;20047;-75
2022/09/07 17:21:55;;;;;;;3.28;2.38;;;23.10;54.90;;;;;;20591529;28;20051;-73
2022/09/07 17:31:57;;;;;;;3.15;2.38;;;23.10;55.10;;;;;;20585378;28;20042;-74
2022/09/07 17:41:57;;;;;;;4.45;2.17;;;23.10;55.80;;;;;;20572001;28;20039;-73
2022/09/07 17:51:59;;;;;;;3.28;2.45;;;23.10;55.40;;;;;;20587678;28;20504;-75
2022/09/07 18:02:00;;;;;;;7.57;3.40;;;23.10;55.60;;;;;;20589078;28;20523;-75
2022/09/07 18:12:01;;;;;;;3.75;2.70;;;23.10;55.70;;;;;;20588753;28;20066;-75
2022/09/07 18:22:04;;;;;;;3.97;2.28;;;23.10;55.80;;;;;;20667383;28;20030;-75
2022/09/07 18:32:10;;;;;;;3.83;2.70;;;23.10;55.80;;;;;;20714898;28;20054;-72
2022/09/07 18:42:11;;;;;;;4.15;2.65;;;23.10;55.90;;;;;;20730694;28;20045;-73
2022/09/07 18:52:11;;;;;;;7.43;2.85;;;23.10;55.90;;;;;;20697255;28;20049;-73
2022/09/07 19:02:12;;;;;;;3.80;2.42;;;23.10;56.00;;;;;;20696698;28;20061;-73
2022/09/07 19:12:13;;;;;;;3.40;2.60;;;23.10;56.20;;;;;;20728277;28;20484;-73
2022/09/07 19:22:16;;;;;;;4.00;2.75;;;23.10;56.30;;;;;;20697007;28;20026;-76
2022/09/07 19:32:19;;;;;;;4.25;2.63;;;23.20;56.50;;;;;;20711655;28;20072;-73
2022/09/07 19:42:21;;;;;;;3.40;2.42;;;23.20;56.70;;;;;;20726173;28;20499;-76
2022/09/07 19:52:21;;;;;;;3.20;2.58;;;23.20;56.80;;;;;;20725450;28;20060;-74
2022/09/07 20:02:22;;;;;;;3.80;2.90;;;23.20;56.90;;;;;;20742447;28;20045;-74
2022/09/07 20:12:23;;;;;;;3.05;2.45;;;23.20;57.00;;;;;;20735804;28;20045;-75
2022/09/07 20:22:23;;;;;;;4.45;2.97;;;23.20;57.10;;;;;;20722787;28;20038;-73
2022/09/07 20:32:26;;;;;;;5.95;2.92;;;23.20;57.20;;;;;;20724198;28;20034;-73
2022/09/07 20:42:27;;;;;;;5.15;2.90;;;23.20;57.50;;;;;;20679440;28;20027;-73
2022/09/07 20:52:27;;;;;;;4.13;3.15;;;23.10;57.60;;;;;;20591531;28;20149;-74
2022/09/07 21:02:28;;;;;;;3.65;2.97;;;23.20;57.70;;;;;;20576093;28;20031;-73
2022/09/07 21:12:29;;;;;;;3.08;2.47;;;23.20;57.70;;;;;;20592274;28;20069;-72
2022/09/07 21:22:30;;;;;;;3.78;3.13;;;23.10;57.70;;;;;;20591863;28;20537;-72
2022/09/07 21:32:31;;;;;;;5.43;3.30;;;23.20;57.70;;;;;;20592258;28;20053;-73
2022/09/07 21:42:31;;;;;;;4.38;2.70;;;23.10;57.70;;;;;;20574046;28;20473;-74
2022/09/07 21:52:32;;;;;;;5.43;2.90;;;23.10;57.80;;;;;;20557260;28;20039;-72
2022/09/07 22:02:32;;;;;;;3.45;3.15;;;23.10;57.80;;;;;;20556011;28;20377;-73
2022/09/07 22:12:33;;;;;;;4.90;3.05;;;23.10;57.90;;;;;;20556908;28;20046;-72
2022/09/07 22:22:34;;;;;;;3.75;2.97;;;23.10;58.00;;;;;;20571947;28;20035;-72
2022/09/07 22:32:35;;;;;;;3.20;2.90;;;23.10;58.00;;;;;;20571808;28;20191;-72
2022/09/07 22:42:35;;;;;;;4.40;2.85;;;23.10;58.20;;;;;;20569951;28;20458;-72
2022/09/07 22:52:36;;;;;;;3.58;2.78;;;23.10;58.20;;;;;;20568854;28;20034;-72
2022/09/07 23:02:36;;;;;;;3.17;2.67;;;23.10;58.30;;;;;;20552176;28;20026;-72
2022/09/07 23:12:39;;;;;;;6.07;3.22;;;23.10;58.40;;;;;;20551352;28;20062;-73
2022/09/07 23:22:42;;;;;;;4.07;3.42;;;23.10;58.50;;;;;;20599481;28;20070;-72
2022/09/07 23:32:42;;;;;;;3.10;2.60;;;23.10;58.60;;;;;;20551329;28;20042;-73
2022/09/07 23:42:43;;;;;;;5.30;2.85;;;23.10;58.70;;;;;;20550119;28;20049;-73
2022/09/07 23:52:44;;;;;;;4.18;2.80;;;23.10;58.80;;;;;;20564687;28;20122;-72
